John D. Leitch — VGWM — position and weather

sailwx.info

Track history (hours):
 
Tides and Currents Weather Stations Pressure Air Temp Water Temp Dewpoint Dewpoint Depression Visibility Wind Speed Wind Dir Waves Ship Positions

John D. Leitch

ex Canadian Century

Last reported at 2018-Jun-18 17:52 UTC. Time now 2018-Jun-22 17:12 UTC.
Position N 45°14' W 074°15'.

Length 222 m; draft 8.1 m.

Type: Cargo ship. MMSI: 316001701.

Date/timePositionNaut miles runAvg speedWind from/ knotsBaromVisibWave heightAir tempDewpointWater temp
2018-Jun-18 17:52N 45°14' W 074°15'3 6.1
2018-Jun-18 17:23N 45°14' W 074°10'6 6.9
2018-Jun-18 16:29N 45°14' W 074°02'4 8.1
2018-Jun-18 16:00N 45°16' W 073°57'2 4.9
2018-Jun-18 15:31N 45°18' W 073°56'0 0.4
2018-Jun-18 15:00N 45°18' W 073°56'1 1.4
2018-Jun-18 14:31N 45°19' W 073°55'0 0.4
2018-Jun-18 14:00N 45°19' W 073°55'1 2.1
2018-Jun-18 13:30N 45°20' W 073°54'4 7.8
2018-Jun-18 13:00N 45°22' W 073°50'4 8.2
2018-Jun-18 12:30N 45°24' W 073°45'3 6.3
2018-Jun-18 12:00N 45°25' W 073°40'2 3.8
2018-Jun-18 11:28N 45°24' W 073°38'1 2.1
2018-Jun-18 10:56N 45°24' W 073°36'1 2.2
2018-Jun-18 10:30N 45°24' W 073°35'1 0.8
2018-Jun-18 09:52N 45°24' W 073°34'1 1.4
2018-Jun-18 09:30N 45°24' W 073°33'2 4.8
2018-Jun-18 09:01N 45°26' W 073°30'3 6.0
2018-Jun-18 08:30N 45°29' W 073°31'10 3.2
2018-Jun-18 05:33N 45°38' W 073°29'0 4.7
2018-Jun-18 05:30N 45°38' W 073°29'3 5.6
2018-Jun-18 04:54N 45°41' W 073°27'3 8.3
2018-Jun-18 04:30N 45°44' W 073°25'4 8.4
2018-Jun-18 04:00N 45°47' W 073°21'4 8.7
2018-Jun-18 03:30N 45°51' W 073°17'4 8.4
2018-Jun-18 03:00N 45°54' W 073°13'4 8.4
2018-Jun-18 02:30N 45°58' W 073°12'4 8.8
2018-Jun-18 02:01N 46°02' W 073°10'4 8.9
2018-Jun-18 01:30N 46°04' W 073°04'89 8.2
2018-Jun-17 14:38N 46°48' W 071°12'1 9.9
2018-Jun-17 14:30N 46°49' W 071°12'1 1.0
2018-Jun-17 14:00N 46°50' W 071°12'0 0.0
2018-Jun-17 13:28N 46°50' W 071°12'0 0.0
2018-Jun-17 12:49N 46°50' W 071°12'0 0.0
2018-Jun-17 12:30N 46°50' W 071°12'0 0.0
2018-Jun-17 11:59N 46°50' W 071°12'0 0.0
2018-Jun-17 11:23N 46°50' W 071°12'0 0.0
2018-Jun-17 11:00N 46°50' W 071°12'0 0.0
2018-Jun-17 10:29N 46°50' W 071°12'0 0.0
2018-Jun-17 10:00N 46°50' W 071°12'0 0.0
2018-Jun-17 09:27N 46°50' W 071°12'0 0.0
2018-Jun-17 09:00N 46°50' W 071°12'0 0.0
2018-Jun-17 08:30N 46°50' W 071°12'0 0.0
2018-Jun-17 08:00N 46°50' W 071°12'0 0.0
2018-Jun-17 07:29N 46°50' W 071°12'0 0.0
2018-Jun-17 06:59N 46°50' W 071°12'0 0.0
2018-Jun-17 06:30N 46°50' W 071°12'0 0.0
2018-Jun-17 05:50N 46°50' W 071°12'0 0.0
2018-Jun-17 05:28N 46°50' W 071°12'0 0.0
2018-Jun-17 05:00N 46°50' W 071°12'0 0.0
2018-Jun-17 04:25N 46°50' W 071°12'0 0.0
2018-Jun-17 04:00N 46°50' W 071°12'0 0.0
2018-Jun-17 03:30N 46°50' W 071°12'0 0.0
2018-Jun-17 03:00N 46°50' W 071°12'0 0.0
2018-Jun-17 02:30N 46°50' W 071°12'0 0.0
2018-Jun-17 02:00N 46°50' W 071°12'0 0.0
2018-Jun-17 01:29N 46°50' W 071°12'0 0.0
2018-Jun-17 01:00N 46°50' W 071°12'0 0.0
2018-Jun-17 00:30N 46°50' W 071°12'0 0.0
2018-Jun-17 00:00N 46°50' W 071°12'0 0.0
2018-Jun-16 23:25N 46°50' W 071°12'0 0.0
2018-Jun-16 22:53N 46°50' W 071°12'0 0.0
2018-Jun-16 22:18N 46°50' W 071°12'0 0.0
2018-Jun-16 22:00N 46°50' W 071°12'0 0.0
2018-Jun-16 21:30N 46°50' W 071°12'0 0.0
2018-Jun-16 20:59N 46°50' W 071°12'0 0.0
2018-Jun-16 20:24N 46°50' W 071°12'0 0.0
2018-Jun-16 20:00N 46°50' W 071°12'0 0.0
2018-Jun-16 19:29N 46°50' W 071°12'0 0.0
2018-Jun-16 19:00N 46°50' W 071°12'0 0.0
2018-Jun-16 18:30N 46°50' W 071°12'0 0.0
2018-Jun-16 17:58N 46°50' W 071°12'0 0.0
2018-Jun-16 17:29N 46°50' W 071°12'0 0.0
2018-Jun-16 17:00N 46°50' W 071°12'0 0.0
2018-Jun-16 16:30N 46°50' W 071°12'0 0.0
2018-Jun-16 16:00N 46°50' W 071°12'0 0.0
2018-Jun-16 15:30N 46°50' W 071°12'0 0.0
2018-Jun-16 14:59N 46°50' W 071°12'0 0.0
2018-Jun-16 14:30N 46°50' W 071°12'0 0.0
2018-Jun-16 13:58N 46°50' W 071°12'0 0.0
2018-Jun-16 13:30N 46°50' W 071°12'0 0.0
2018-Jun-16 13:00N 46°50' W 071°12'0 0.0
2018-Jun-16 12:30N 46°50' W 071°12'0 0.0
2018-Jun-16 11:57N 46°50' W 071°12'0 0.0
2018-Jun-16 11:29N 46°50' W 071°12'0 0.2
2018-Jun-16 10:58N 46°50' W 071°12'0 0.0
2018-Jun-16 10:30N 46°50' W 071°12'0 0.0
2018-Jun-16 09:58N 46°50' W 071°12'0 0.0
2018-Jun-16 09:30N 46°50' W 071°12'0 0.0
2018-Jun-16 09:00N 46°50' W 071°12'0 0.0
2018-Jun-16 08:30N 46°50' W 071°12'0 0.0
2018-Jun-16 08:00N 46°50' W 071°12'0 0.0
2018-Jun-16 07:30N 46°50' W 071°12'0 0.0
2018-Jun-16 06:59N 46°50' W 071°12'0 0.0
2018-Jun-16 06:30N 46°50' W 071°12'0 0.0
2018-Jun-16 06:00N 46°50' W 071°12'0 0.0
2018-Jun-16 05:30N 46°50' W 071°12'0 0.0
2018-Jun-16 05:00N 46°50' W 071°12'0 0.0
2018-Jun-16 04:30N 46°50' W 071°12'0 0.0
2018-Jun-16 03:58N 46°50' W 071°12'0 0.0
2018-Jun-16 03:29N 46°50' W 071°12'0 0.0
2018-Jun-16 03:00N 46°50' W 071°12'0 0.0
2018-Jun-16 02:30N 46°50' W 071°12'0 0.0
2018-Jun-16 01:58N 46°50' W 071°12'0 0.0
2018-Jun-16 01:30N 46°50' W 071°12'0 0.0
2018-Jun-16 00:59N 46°50' W 071°12'0 0.0
2018-Jun-16 00:30N 46°50' W 071°12'0 0.0
2018-Jun-15 23:58N 46°50' W 071°12'0 0.0
2018-Jun-15 23:30N 46°50' W 071°12'0 0.0
2018-Jun-15 23:00N 46°50' W 071°12'0 0.0
2018-Jun-15 22:30N 46°50' W 071°12'0 0.0
2018-Jun-15 22:00N 46°50' W 071°12'0 0.0
2018-Jun-15 21:22N 46°50' W 071°12'0 0.0
2018-Jun-15 21:00N 46°50' W 071°12'0 0.0
2018-Jun-15 20:29N 46°50' W 071°12'0 0.0
2018-Jun-15 19:50N 46°50' W 071°12'0 0.0
2018-Jun-15 19:30N 46°50' W 071°12'0 0.8
2018-Jun-15 19:00N 46°50' W 071°12'8711.4
2018-Jun-15 11:22N 46°05' W 073°01'412.0
2018-Jun-15 11:00N 46°03' W 073°06'4 8.9
2018-Jun-15 10:30N 46°00' W 073°11'611.2
2018-Jun-15 10:00N 45°55' W 073°13'712.8
2018-Jun-15 09:29N 45°49' W 073°18'612.9
2018-Jun-15 09:00N 45°45' W 073°24'15 9.9
2018-Jun-15 07:28N 45°30' W 073°31'0 0.9
2018-Jun-15 06:59N 45°30' W 073°31'1 1.3
2018-Jun-15 06:30N 45°29' W 073°31'2 5.1
2018-Jun-15 06:00N 45°27' W 073°30'3 5.3
2018-Jun-15 05:31N 45°24' W 073°32'1 2.2
2018-Jun-15 05:01N 45°24' W 073°34'0 0.8
2018-Jun-15 04:31N 45°24' W 073°34'2 3.4
2018-Jun-15 03:54N 45°24' W 073°37'2 5.6
2018-Jun-15 03:30N 45°25' W 073°40'3 5.8
2018-Jun-15 03:00N 45°24' W 073°44'2 4.8
2018-Jun-15 02:30N 45°24' W 073°48'2 4.7
2018-Jun-15 02:00N 45°22' W 073°50'3 5.4
2018-Jun-15 01:30N 45°20' W 073°53'2 3.9
2018-Jun-15 01:00N 45°19' W 073°55'0 0.6
2018-Jun-15 00:31N 45°19' W 073°55'1 1.1
2018-Jun-15 00:00N 45°18' W 073°56'0 0.6
2018-Jun-14 23:30N 45°18' W 073°56'2 3.1
2018-Jun-14 23:00N 45°17' W 073°57'4 8.1
2018-Jun-14 22:30N 45°14' W 074°01'  
2018-Jun-11 12:51N 45°29' W 083°17'411.7
2018-Jun-11 12:30N 45°32' W 083°21'352 9.4
2018-Jun-09 23:06N 46°53' W 091°36'111.5
2018-Jun-09 23:00N 46°53' W 091°37'611.6
2018-Jun-09 22:30N 46°50' W 091°44'611.4
2018-Jun-09 22:00N 46°47' W 091°51'611.5
2018-Jun-09 21:30N 46°44' W 091°58'3 5.1
2018-Jun-09 21:00N 46°42' W 092°01'0 0.2
2018-Jun-09 20:30N 46°42' W 092°01'0 0.0
2018-Jun-09 20:00N 46°42' W 092°01'0 0.0
2018-Jun-09 19:30N 46°42' W 092°01'0 0.0
2018-Jun-09 19:00N 46°42' W 092°01'0 0.0
2018-Jun-09 18:30N 46°42' W 092°01'0 0.0
2018-Jun-09 18:00N 46°42' W 092°01'0 0.0
2018-Jun-09 17:30N 46°42' W 092°01'0 0.0
2018-Jun-09 17:00N 46°42' W 092°01'0 0.0
2018-Jun-09 16:30N 46°42' W 092°01'0 0.0
2018-Jun-09 16:00N 46°42' W 092°01'0 0.0
2018-Jun-09 15:30N 46°42' W 092°01'0 0.0
2018-Jun-09 14:30N 46°42' W 092°01'0 0.0
2018-Jun-09 14:00N 46°42' W 092°01'0 0.0
2018-Jun-09 13:30N 46°42' W 092°01'0 0.0
2018-Jun-09 13:00N 46°42' W 092°01'0 0.0
2018-Jun-09 12:30N 46°42' W 092°01'0 0.0
2018-Jun-09 12:00N 46°42' W 092°01'0 0.0
2018-Jun-09 11:30N 46°42' W 092°01'0 0.0
2018-Jun-09 11:00N 46°42' W 092°01'0 0.0
2018-Jun-09 10:30N 46°42' W 092°01'0 0.1
2018-Jun-09 10:00N 46°42' W 092°01'1 1.7
2018-Jun-09 09:29N 46°43' W 092°00'511.0
2018-Jun-09 09:00N 46°45' W 091°54'612.8
2018-Jun-09 08:30N 46°48' W 091°45'712.6
2018-Jun-09 07:59N 46°51' W 091°37'  
Track history (hours):
 
Tides and Currents Weather Stations Pressure Air Temp Water Temp Dewpoint Dewpoint Depression Visibility Wind Speed Wind Dir Waves Ship Positions

John D. Leitch

ex Canadian Century

Last reported at 2018-Jun-18 17:52 UTC. Time now 2018-Jun-22 17:12 UTC.
Position N 45°14' W 074°15'.

Length 222 m; draft 8.1 m.

Type: Cargo ship. MMSI: 316001701.

Date/timePositionNaut miles runAvg speedWind from/ knotsBaromVisibWave heightAir tempDewpointWater temp
2018-Jun-18 17:52N 45°14' W 074°15'3 6.1
2018-Jun-18 17:23N 45°14' W 074°10'6 6.9
2018-Jun-18 16:29N 45°14' W 074°02'4 8.1
2018-Jun-18 16:00N 45°16' W 073°57'2 4.9
2018-Jun-18 15:31N 45°18' W 073°56'0 0.4
2018-Jun-18 15:00N 45°18' W 073°56'1 1.4
2018-Jun-18 14:31N 45°19' W 073°55'0 0.4
2018-Jun-18 14:00N 45°19' W 073°55'1 2.1
2018-Jun-18 13:30N 45°20' W 073°54'4 7.8
2018-Jun-18 13:00N 45°22' W 073°50'4 8.2
2018-Jun-18 12:30N 45°24' W 073°45'3 6.3
2018-Jun-18 12:00N 45°25' W 073°40'2 3.8
2018-Jun-18 11:28N 45°24' W 073°38'1 2.1
2018-Jun-18 10:56N 45°24' W 073°36'1 2.2
2018-Jun-18 10:30N 45°24' W 073°35'1 0.8
2018-Jun-18 09:52N 45°24' W 073°34'1 1.4
2018-Jun-18 09:30N 45°24' W 073°33'2 4.8
2018-Jun-18 09:01N 45°26' W 073°30'3 6.0
2018-Jun-18 08:30N 45°29' W 073°31'10 3.2
2018-Jun-18 05:33N 45°38' W 073°29'0 4.7
2018-Jun-18 05:30N 45°38' W 073°29'3 5.6
2018-Jun-18 04:54N 45°41' W 073°27'3 8.3
2018-Jun-18 04:30N 45°44' W 073°25'4 8.4
2018-Jun-18 04:00N 45°47' W 073°21'4 8.7
2018-Jun-18 03:30N 45°51' W 073°17'4 8.4
2018-Jun-18 03:00N 45°54' W 073°13'4 8.4
2018-Jun-18 02:30N 45°58' W 073°12'4 8.8
2018-Jun-18 02:01N 46°02' W 073°10'4 8.9
2018-Jun-18 01:30N 46°04' W 073°04'89 8.2
2018-Jun-17 14:38N 46°48' W 071°12'1 9.9
2018-Jun-17 14:30N 46°49' W 071°12'1 1.0
2018-Jun-17 14:00N 46°50' W 071°12'0 0.0
2018-Jun-17 13:28N 46°50' W 071°12'0 0.0
2018-Jun-17 12:49N 46°50' W 071°12'0 0.0
2018-Jun-17 12:30N 46°50' W 071°12'0 0.0
2018-Jun-17 11:59N 46°50' W 071°12'0 0.0
2018-Jun-17 11:23N 46°50' W 071°12'0 0.0
2018-Jun-17 11:00N 46°50' W 071°12'0 0.0
2018-Jun-17 10:29N 46°50' W 071°12'0 0.0
2018-Jun-17 10:00N 46°50' W 071°12'0 0.0
2018-Jun-17 09:27N 46°50' W 071°12'0 0.0
2018-Jun-17 09:00N 46°50' W 071°12'0 0.0
2018-Jun-17 08:30N 46°50' W 071°12'0 0.0
2018-Jun-17 08:00N 46°50' W 071°12'0 0.0
2018-Jun-17 07:29N 46°50' W 071°12'0 0.0
2018-Jun-17 06:59N 46°50' W 071°12'0 0.0
2018-Jun-17 06:30N 46°50' W 071°12'0 0.0
2018-Jun-17 05:50N 46°50' W 071°12'0 0.0
2018-Jun-17 05:28N 46°50' W 071°12'0 0.0
2018-Jun-17 05:00N 46°50' W 071°12'0 0.0
2018-Jun-17 04:25N 46°50' W 071°12'0 0.0
2018-Jun-17 04:00N 46°50' W 071°12'0 0.0
2018-Jun-17 03:30N 46°50' W 071°12'0 0.0
2018-Jun-17 03:00N 46°50' W 071°12'0 0.0
2018-Jun-17 02:30N 46°50' W 071°12'0 0.0
2018-Jun-17 02:00N 46°50' W 071°12'0 0.0
2018-Jun-17 01:29N 46°50' W 071°12'0 0.0
2018-Jun-17 01:00N 46°50' W 071°12'0 0.0
2018-Jun-17 00:30N 46°50' W 071°12'0 0.0
2018-Jun-17 00:00N 46°50' W 071°12'0 0.0
2018-Jun-16 23:25N 46°50' W 071°12'0 0.0
2018-Jun-16 22:53N 46°50' W 071°12'0 0.0
2018-Jun-16 22:18N 46°50' W 071°12'0 0.0
2018-Jun-16 22:00N 46°50' W 071°12'0 0.0
2018-Jun-16 21:30N 46°50' W 071°12'0 0.0
2018-Jun-16 20:59N 46°50' W 071°12'0 0.0
2018-Jun-16 20:24N 46°50' W 071°12'0 0.0
2018-Jun-16 20:00N 46°50' W 071°12'0 0.0
2018-Jun-16 19:29N 46°50' W 071°12'0 0.0
2018-Jun-16 19:00N 46°50' W 071°12'0 0.0
2018-Jun-16 18:30N 46°50' W 071°12'0 0.0
2018-Jun-16 17:58N 46°50' W 071°12'0 0.0
2018-Jun-16 17:29N 46°50' W 071°12'0 0.0
2018-Jun-16 17:00N 46°50' W 071°12'0 0.0
2018-Jun-16 16:30N 46°50' W 071°12'0 0.0
2018-Jun-16 16:00N 46°50' W 071°12'0 0.0
2018-Jun-16 15:30N 46°50' W 071°12'0 0.0
2018-Jun-16 14:59N 46°50' W 071°12'0 0.0
2018-Jun-16 14:30N 46°50' W 071°12'0 0.0
2018-Jun-16 13:58N 46°50' W 071°12'0 0.0
2018-Jun-16 13:30N 46°50' W 071°12'0 0.0
2018-Jun-16 13:00N 46°50' W 071°12'0 0.0
2018-Jun-16 12:30N 46°50' W 071°12'0 0.0
2018-Jun-16 11:57N 46°50' W 071°12'0 0.0
2018-Jun-16 11:29N 46°50' W 071°12'0 0.2
2018-Jun-16 10:58N 46°50' W 071°12'0 0.0
2018-Jun-16 10:30N 46°50' W 071°12'0 0.0
2018-Jun-16 09:58N 46°50' W 071°12'0 0.0
2018-Jun-16 09:30N 46°50' W 071°12'0 0.0
2018-Jun-16 09:00N 46°50' W 071°12'0 0.0
2018-Jun-16 08:30N 46°50' W 071°12'0 0.0
2018-Jun-16 08:00N 46°50' W 071°12'0 0.0
2018-Jun-16 07:30N 46°50' W 071°12'0 0.0
2018-Jun-16 06:59N 46°50' W 071°12'0 0.0
2018-Jun-16 06:30N 46°50' W 071°12'0 0.0
2018-Jun-16 06:00N 46°50' W 071°12'0 0.0
2018-Jun-16 05:30N 46°50' W 071°12'0 0.0
2018-Jun-16 05:00N 46°50' W 071°12'0 0.0
2018-Jun-16 04:30N 46°50' W 071°12'0 0.0
2018-Jun-16 03:58N 46°50' W 071°12'0 0.0
2018-Jun-16 03:29N 46°50' W 071°12'0 0.0
2018-Jun-16 03:00N 46°50' W 071°12'0 0.0
2018-Jun-16 02:30N 46°50' W 071°12'0 0.0
2018-Jun-16 01:58N 46°50' W 071°12'0 0.0
2018-Jun-16 01:30N 46°50' W 071°12'0 0.0
2018-Jun-16 00:59N 46°50' W 071°12'0 0.0
2018-Jun-16 00:30N 46°50' W 071°12'0 0.0
2018-Jun-15 23:58N 46°50' W 071°12'0 0.0
2018-Jun-15 23:30N 46°50' W 071°12'0 0.0
2018-Jun-15 23:00N 46°50' W 071°12'0 0.0
2018-Jun-15 22:30N 46°50' W 071°12'0 0.0
2018-Jun-15 22:00N 46°50' W 071°12'0 0.0
2018-Jun-15 21:22N 46°50' W 071°12'0 0.0
2018-Jun-15 21:00N 46°50' W 071°12'0 0.0
2018-Jun-15 20:29N 46°50' W 071°12'0 0.0
2018-Jun-15 19:50N 46°50' W 071°12'0 0.0
2018-Jun-15 19:30N 46°50' W 071°12'0 0.8
2018-Jun-15 19:00N 46°50' W 071°12'8711.4
2018-Jun-15 11:22N 46°05' W 073°01'412.0
2018-Jun-15 11:00N 46°03' W 073°06'4 8.9
2018-Jun-15 10:30N 46°00' W 073°11'611.2
2018-Jun-15 10:00N 45°55' W 073°13'712.8
2018-Jun-15 09:29N 45°49' W 073°18'612.9
2018-Jun-15 09:00N 45°45' W 073°24'15 9.9
2018-Jun-15 07:28N 45°30' W 073°31'0 0.9
2018-Jun-15 06:59N 45°30' W 073°31'1 1.3
2018-Jun-15 06:30N 45°29' W 073°31'2 5.1
2018-Jun-15 06:00N 45°27' W 073°30'3 5.3
2018-Jun-15 05:31N 45°24' W 073°32'1 2.2
2018-Jun-15 05:01N 45°24' W 073°34'0 0.8
2018-Jun-15 04:31N 45°24' W 073°34'2 3.4
2018-Jun-15 03:54N 45°24' W 073°37'2 5.6
2018-Jun-15 03:30N 45°25' W 073°40'3 5.8
2018-Jun-15 03:00N 45°24' W 073°44'2 4.8
2018-Jun-15 02:30N 45°24' W 073°48'2 4.7
2018-Jun-15 02:00N 45°22' W 073°50'3 5.4
2018-Jun-15 01:30N 45°20' W 073°53'2 3.9
2018-Jun-15 01:00N 45°19' W 073°55'0 0.6
2018-Jun-15 00:31N 45°19' W 073°55'1 1.1
2018-Jun-15 00:00N 45°18' W 073°56'0 0.6
2018-Jun-14 23:30N 45°18' W 073°56'2 3.1
2018-Jun-14 23:00N 45°17' W 073°57'4 8.1
2018-Jun-14 22:30N 45°14' W 074°01'  
2018-Jun-11 12:51N 45°29' W 083°17'411.7
2018-Jun-11 12:30N 45°32' W 083°21'352 9.4
2018-Jun-09 23:06N 46°53' W 091°36'111.5
2018-Jun-09 23:00N 46°53' W 091°37'611.6
2018-Jun-09 22:30N 46°50' W 091°44'611.4
2018-Jun-09 22:00N 46°47' W 091°51'611.5
2018-Jun-09 21:30N 46°44' W 091°58'3 5.1
2018-Jun-09 21:00N 46°42' W 092°01'0 0.2
2018-Jun-09 20:30N 46°42' W 092°01'0 0.0
2018-Jun-09 20:00N 46°42' W 092°01'0 0.0
2018-Jun-09 19:30N 46°42' W 092°01'0 0.0
2018-Jun-09 19:00N 46°42' W 092°01'0 0.0
2018-Jun-09 18:30N 46°42' W 092°01'0 0.0
2018-Jun-09 18:00N 46°42' W 092°01'0 0.0
2018-Jun-09 17:30N 46°42' W 092°01'0 0.0
2018-Jun-09 17:00N 46°42' W 092°01'0 0.0
2018-Jun-09 16:30N 46°42' W 092°01'0 0.0
2018-Jun-09 16:00N 46°42' W 092°01'0 0.0
2018-Jun-09 15:30N 46°42' W 092°01'0 0.0
2018-Jun-09 14:30N 46°42' W 092°01'0 0.0
2018-Jun-09 14:00N 46°42' W 092°01'0 0.0
2018-Jun-09 13:30N 46°42' W 092°01'0 0.0
2018-Jun-09 13:00N 46°42' W 092°01'0 0.0
2018-Jun-09 12:30N 46°42' W 092°01'0 0.0
2018-Jun-09 12:00N 46°42' W 092°01'0 0.0
2018-Jun-09 11:30N 46°42' W 092°01'0 0.0
2018-Jun-09 11:00N 46°42' W 092°01'0 0.0
2018-Jun-09 10:30N 46°42' W 092°01'0 0.1
2018-Jun-09 10:00N 46°42' W 092°01'1 1.7
2018-Jun-09 09:29N 46°43' W 092°00'511.0
2018-Jun-09 09:00N 46°45' W 091°54'612.8
2018-Jun-09 08:30N 46°48' W 091°45'712.6
2018-Jun-09 07:59N 46°51' W 091°37'  

Dump ship's entire track history